Time;durP1;ratioP1;P1;durP2;ratioP2;P2;SDS_P1;SDS_P2;PMS_P1;PMS_P2;Temp;Humidity;BMP_temperature;BMP_pressure;BME280_temperature;BME280_humidity;BME280_pressure;Samples;Min_cycle;Max_cycle;Signal;HPM_P1;HPM_P2
2022/07/18 00:01:24;;;;;;;;;;;;;;;26.30;22.73;99954.13;4363029;32;35201;-84
2022/07/18 00:03:51;;;;;;;;;;;;;;;26.03;23.03;99961.38;4386668;32;34341;-83
2022/07/18 00:06:19;;;;;;;;;;;;;;;25.76;23.60;99963.22;4378208;32;34318;-84
2022/07/18 00:08:46;;;;;;;;;;;;;;;26.04;23.26;99963.94;4382749;32;34280;-84
2022/07/18 00:11:13;;;;;;;;;;;;;;;25.84;23.54;99971.81;4362867;32;33844;-84
2022/07/18 00:13:41;;;;;;;;;;;;;;;25.93;23.37;99968.81;4376638;32;34054;-84
2022/07/18 00:16:08;;;;;;;;;;;;;;;25.97;23.60;99965.09;4376405;32;34790;-84
2022/07/18 00:18:36;;;;;;;;;;;;;;;25.86;23.85;99970.81;4376125;32;34297;-82
2022/07/18 00:21:03;;;;;;;;;;;;;;;26.04;23.52;99974.59;4376715;32;34337;-84
2022/07/18 00:23:30;;;;;;;;;;;;;;;25.77;23.83;99970.28;4377259;32;34517;-84
2022/07/18 00:25:58;;;;;;;;;;;;;;;25.92;23.57;99961.78;4376111;32;34287;-84
2022/07/18 00:28:25;;;;;;;;;;;;;;;26.14;23.34;99967.12;4389714;32;33485;-83
2022/07/18 00:30:52;;;;;;;;;;;;;;;26.05;23.37;99964.81;4391328;32;34139;-84
2022/07/18 00:33:20;;;;;;;;;;;;;;;26.01;23.42;99963.19;4383165;32;34374;-84
2022/07/18 00:35:47;;;;;;;;;;;;;;;25.77;23.66;99964.97;4376378;32;34021;-84
2022/07/18 00:38:14;;;;;;;;;;;;;;;25.81;23.47;99959.50;4387873;32;33399;-83
2022/07/18 00:40:42;;;;;;;;;;;;;;;25.78;23.47;99970.25;4377259;32;33818;-84
2022/07/18 00:43:11;;;;;;;;;;;;;;;26.06;23.23;99967.41;4369932;32;33952;-84
2022/07/18 00:45:39;;;;;;;;;;;;;;;25.99;23.10;99965.03;4362849;32;34068;-84
2022/07/18 00:48:07;;;;;;;;;;;;;;;26.04;23.08;99969.25;4356407;32;34091;-84
2022/07/18 00:50:34;;;;;;;;;;;;;;;26.03;23.12;99969.34;4362989;32;33805;-84
2022/07/18 00:53:01;;;;;;;;;;;;;;;25.94;23.31;99967.88;4362786;32;34938;-84
2022/07/18 00:55:29;;;;;;;;;;;;;;;25.96;23.26;99971.34;4375957;32;33677;-84
2022/07/18 00:57:56;;;;;;;;;;;;;;;25.88;23.28;99961.00;4378013;32;33399;-84
2022/07/18 01:03:09;;;;;;;;;;;;;;;25.58;23.50;99965.63;4376379;32;33981;-84
2022/07/18 01:05:37;;;;;;;;;;;;;;;25.83;23.45;99970.94;4376233;32;35004;-84
2022/07/18 01:08:04;;;;;;;;;;;;;;;25.98;23.41;99964.16;4380054;32;33407;-84
2022/07/18 01:10:31;;;;;;;;;;;;;;;25.82;23.45;99957.72;4362605;32;34221;-84
2022/07/18 01:12:59;;;;;;;;;;;;;;;25.80;23.39;99959.53;4362641;32;35087;-84
2022/07/18 01:15:26;;;;;;;;;;;;;;;25.23;23.84;99954.47;4376049;32;34125;-84
2022/07/18 01:17:53;;;;;;;;;;;;;;;25.22;23.86;99958.03;4380536;32;33610;-84
2022/07/18 01:20:20;;;;;;;;;;;;;;;25.33;23.87;99960.31;4376179;32;34651;-83
2022/07/18 01:22:48;;;;;;;;;;;;;;;25.23;23.78;99965.09;4375006;32;35290;-84
2022/07/18 01:25:17;;;;;;;;;;;;;;;25.37;23.70;99961.94;4370062;32;34694;-84
2022/07/18 01:27:44;;;;;;;;;;;;;;;25.21;24.06;99958.97;4376213;32;33404;-84
2022/07/18 01:30:11;;;;;;;;;;;;;;;25.62;23.38;99958.41;4362550;32;34345;-84
2022/07/18 01:32:40;;;;;;;;;;;;;;;25.48;23.12;99970.37;4376038;32;34796;-84
2022/07/18 01:35:08;;;;;;;;;;;;;;;24.90;23.58;99966.19;4375953;32;34248;-84
2022/07/18 01:37:35;;;;;;;;;;;;;;;25.20;23.61;99965.19;4374803;32;33493;-84
2022/07/18 01:40:11;;;;;;;;;;;;;;;25.35;23.68;99968.25;4356649;32;33911;-84
2022/07/18 01:42:39;;;;;;;;;;;;;;;25.69;23.38;99970.56;4362353;32;35208;-84
2022/07/18 01:45:06;;;;;;;;;;;;;;;25.47;23.54;99965.16;4375725;32;34018;-82
2022/07/18 01:47:33;;;;;;;;;;;;;;;25.26;23.73;99969.41;4361929;32;33270;-83
2022/07/18 01:50:01;;;;;;;;;;;;;;;25.19;23.26;99968.78;4375950;32;35010;-84
2022/07/18 01:52:28;;;;;;;;;;;;;;;25.45;23.22;99961.66;4362097;32;33982;-83
2022/07/18 01:54:55;;;;;;;;;;;;;;;25.41;23.34;99960.03;4375845;32;34321;-84
2022/07/18 01:57:23;;;;;;;;;;;;;;;25.38;23.28;99965.44;4376005;32;34278;-84
2022/07/18 01:59:52;;;;;;;;;;;;;;;25.53;23.06;99962.25;4361879;32;33474;-84
2022/07/18 02:02:19;;;;;;;;;;;;;;;25.39;23.10;99968.06;4362193;32;34089;-83
2022/07/18 02:05:03;;;;;;;;;;;;;;;25.48;22.98;99964.22;4375659;32;34857;-84
2022/07/18 02:07:30;;;;;;;;;;;;;;;25.73;22.97;99962.41;4363172;32;34294;-84
2022/07/18 02:09:58;;;;;;;;;;;;;;;25.54;23.35;99969.31;4375715;32;35263;-84
2022/07/18 02:12:25;;;;;;;;;;;;;;;25.46;23.43;99971.37;4375624;32;33985;-84
2022/07/18 02:14:53;;;;;;;;;;;;;;;25.20;23.90;99969.63;4381738;32;34671;-85
2022/07/18 02:17:20;;;;;;;;;;;;;;;25.35;23.93;99971.75;4382949;32;33058;-84
2022/07/18 02:19:47;;;;;;;;;;;;;;;25.53;23.41;99972.88;4375547;32;35067;-83
2022/07/18 02:22:15;;;;;;;;;;;;;;;25.76;23.15;99969.41;4375460;32;35046;-84
2022/07/18 02:24:42;;;;;;;;;;;;;;;25.60;23.19;99969.06;4380483;32;35009;-84
2022/07/18 02:27:09;;;;;;;;;;;;;;;25.64;23.17;99972.50;4369957;32;34040;-84
2022/07/18 02:29:37;;;;;;;;;;;;;;;25.17;23.74;99977.69;4361572;32;33071;-83
2022/07/18 02:32:04;;;;;;;;;;;;;;;24.52;24.80;99978.91;4361837;32;33250;-85
2022/07/18 02:34:31;;;;;;;;;;;;;;;25.15;24.07;99976.88;4380552;32;34011;-84
2022/07/18 02:36:59;;;;;;;;;;;;;;;25.37;23.85;99967.25;4384696;32;33351;-84
2022/07/18 02:39:26;;;;;;;;;;;;;;;25.47;23.87;99967.81;4361925;32;34336;-84
2022/07/18 02:41:54;;;;;;;;;;;;;;;25.17;23.96;99967.94;4361594;32;35125;-83
2022/07/18 02:44:21;;;;;;;;;;;;;;;25.16;23.85;99966.22;4378039;32;34315;-83
2022/07/18 02:46:49;;;;;;;;;;;;;;;25.17;23.96;99967.94;4386236;32;33455;-84
2022/07/18 02:49:28;;;;;;;;;;;;;;;24.94;24.20;99962.53;4361107;32;34117;-84
2022/07/18 02:51:57;;;;;;;;;;;;;;;25.09;24.18;99969.09;4375193;32;34372;-83
2022/07/18 02:54:24;;;;;;;;;;;;;;;24.93;24.33;99971.41;4374933;32;35022;-83
2022/07/18 02:56:52;;;;;;;;;;;;;;;24.79;24.66;99973.66;4358365;32;32950;-83
2022/07/18 02:59:19;;;;;;;;;;;;;;;24.76;24.71;99964.84;4375050;32;35122;-84
2022/07/18 03:01:48;;;;;;;;;;;;;;;24.82;24.65;99973.56;4380069;32;34097;-82
2022/07/18 03:04:16;;;;;;;;;;;;;;;24.92;24.54;99972.31;4389900;32;34085;-84
2022/07/18 03:06:44;;;;;;;;;;;;;;;24.90;24.80;99966.19;4386655;32;33754;-84
2022/07/18 03:09:11;;;;;;;;;;;;;;;24.91;24.65;99970.59;4360992;32;34969;-84
2022/07/18 03:11:38;;;;;;;;;;;;;;;24.89;24.74;99970.66;4382680;32;34450;-83
2022/07/18 03:14:06;;;;;;;;;;;;;;;24.73;24.92;99969.38;4389955;32;34807;-84
2022/07/18 03:16:33;;;;;;;;;;;;;;;24.56;25.40;99971.72;4387936;32;33218;-84
2022/07/18 03:19:01;;;;;;;;;;;;;;;24.62;25.44;99977.69;4374556;32;34239;-84
2022/07/18 03:21:28;;;;;;;;;;;;;;;24.75;25.35;99976.38;4360687;32;34932;-84
2022/07/18 03:23:56;;;;;;;;;;;;;;;24.59;25.53;99972.50;4387908;32;34055;-83
2022/07/18 03:26:23;;;;;;;;;;;;;;;24.71;25.24;99966.81;4363283;32;32939;-86
2022/07/18 03:28:51;;;;;;;;;;;;;;;24.86;25.07;99969.87;4359642;32;34713;-84
2022/07/18 03:31:18;;;;;;;;;;;;;;;24.72;25.29;99971.19;4371631;32;34483;-84
2022/07/18 03:33:45;;;;;;;;;;;;;;;24.74;25.29;99960.53;4389453;32;34070;-84
2022/07/18 03:36:13;;;;;;;;;;;;;;;24.65;25.38;99969.63;4376076;32;33598;-84
2022/07/18 03:38:43;;;;;;;;;;;;;;;24.53;25.72;99975.34;4379765;32;34211;-84
2022/07/18 03:41:11;;;;;;;;;;;;;;;24.80;25.40;99970.06;4375718;32;33268;-85
2022/07/18 03:43:38;;;;;;;;;;;;;;;24.85;25.21;99979.63;4375698;32;32789;-84
2022/07/18 03:46:06;;;;;;;;;;;;;;;24.81;25.33;99977.09;4376062;32;33369;-84
2022/07/18 03:48:34;;;;;;;;;;;;;;;24.78;25.36;99982.53;4370257;32;33216;-84
2022/07/18 03:51:02;;;;;;;;;;;;;;;24.90;25.41;99982.12;4391725;32;34510;-84
2022/07/18 03:53:30;;;;;;;;;;;;;;;24.99;25.54;99980.00;4391781;32;34136;-84
2022/07/18 03:55:57;;;;;;;;;;;;;;;25.32;25.44;99985.13;4391988;32;33496;-84
2022/07/18 03:58:24;;;;;;;;;;;;;;;25.37;25.60;99988.47;4365191;32;34641;-84
2022/07/18 04:00:51;;;;;;;;;;;;;;;25.56;25.43;99990.50;4376482;32;33812;-84
2022/07/18 04:03:37;;;;;;;;;;;;;;;25.51;25.17;99995.97;4376412;32;35694;-84
2022/07/18 04:06:05;;;;;;;;;;;;;;;25.84;25.10;99998.38;4376609;32;33500;-84
2022/07/18 04:08:33;;;;;;;;;;;;;;;26.02;25.03;99997.66;4380257;32;34049;-84
2022/07/18 04:11:00;;;;;;;;;;;;;;;26.08;24.90;100002.78;4377750;32;34085;-84
2022/07/18 04:13:27;;;;;;;;;;;;;;;26.81;23.78;99998.19;4378007;32;34216;-84
2022/07/18 04:15:55;;;;;;;;;;;;;;;26.25;24.82;99999.47;4391559;32;33265;-84
2022/07/18 04:18:22;;;;;;;;;;;;;;;26.05;25.18;99996.69;4382265;32;34290;-84
2022/07/18 04:20:49;;;;;;;;;;;;;;;26.56;24.01;100004.50;4391450;32;34213;-84
2022/07/18 04:23:18;;;;;;;;;;;;;;;26.98;24.15;99998.38;4389916;32;34868;-84
2022/07/18 04:25:45;;;;;;;;;;;;;;;26.84;23.74;100003.37;4377800;32;34320;-84
2022/07/18 04:28:13;;;;;;;;;;;;;;;27.73;23.19;100003.16;4364356;32;32665;-84
2022/07/18 04:30:41;;;;;;;;;;;;;;;28.16;22.42;100009.22;4377992;32;34694;-83
2022/07/18 04:33:09;;;;;;;;;;;;;;;28.53;21.89;100000.41;4374518;32;33807;-83
2022/07/18 04:35:37;;;;;;;;;;;;;;;28.90;21.83;100009.25;4363028;32;33468;-83
2022/07/18 04:38:05;;;;;;;;;;;;;;;29.35;20.96;99999.91;4377379;32;34307;-84
2022/07/18 04:40:32;;;;;;;;;;;;;;;28.43;21.40;100009.78;4390552;32;33454;-84
2022/07/18 04:42:59;;;;;;;;;;;;;;;28.81;21.77;99999.91;4391093;32;34631;-83
2022/07/18 04:45:26;;;;;;;;;;;;;;;29.21;21.63;100007.75;4377527;32;33473;-84
2022/07/18 04:47:55;;;;;;;;;;;;;;;29.19;21.32;100004.31;4376938;32;34019;-84
2022/07/18 04:50:22;;;;;;;;;;;;;;;29.34;20.82;100001.72;4375693;32;33704;-84
2022/07/18 04:52:49;;;;;;;;;;;;;;;29.44;21.10;100004.78;4376228;32;34335;-84
2022/07/18 04:55:17;;;;;;;;;;;;;;;29.23;20.88;99997.88;4362665;32;32709;-84
2022/07/18 04:57:45;;;;;;;;;;;;;;;29.72;20.57;100011.38;4361543;32;32715;-84
2022/07/18 05:00:14;;;;;;;;;;;;;;;29.16;21.50;100004.47;4376578;32;34433;-84
2022/07/18 05:02:41;;;;;;;;;;;;;;;29.56;20.97;99995.28;4391287;32;34094;-84
2022/07/18 05:05:09;;;;;;;;;;;;;;;29.21;21.02;99992.63;4375076;32;33052;-84
2022/07/18 05:07:40;;;;;;;;;;;;;;;28.83;21.57;99997.19;4376146;32;35408;-84
2022/07/18 05:10:08;;;;;;;;;;;;;;;28.59;22.46;99997.41;4362793;32;34109;-83
2022/07/18 05:12:39;;;;;;;;;;;;;;;28.47;22.46;99995.34;4362485;32;34309;-83
2022/07/18 05:15:08;;;;;;;;;;;;;;;28.76;22.30;100004.62;4363068;32;33304;-83
2022/07/18 05:17:35;;;;;;;;;;;;;;;29.56;21.11;99997.94;4378764;32;34840;-84
2022/07/18 05:20:03;;;;;;;;;;;;;;;29.01;21.93;100009.63;4362616;32;33604;-83
2022/07/18 05:22:32;;;;;;;;;;;;;;;29.31;21.59;100011.69;4376017;32;34999;-84
2022/07/18 05:24:59;;;;;;;;;;;;;;;29.46;21.57;100015.38;4362467;32;33449;-85
2022/07/18 05:27:27;;;;;;;;;;;;;;;28.25;22.49;100015.94;4386003;32;35137;-83
2022/07/18 05:29:54;;;;;;;;;;;;;;;30.10;20.46;100008.47;4390848;32;34336;-83
2022/07/18 05:32:21;;;;;;;;;;;;;;;29.73;20.78;100010.44;4390877;32;34327;-84
2022/07/18 05:34:49;;;;;;;;;;;;;;;30.77;20.09;100018.16;4391270;32;34027;-86
2022/07/18 05:37:16;;;;;;;;;;;;;;;29.64;20.53;100016.28;4382385;32;34464;-85
2022/07/18 05:39:43;;;;;;;;;;;;;;;28.62;21.50;100020.44;4375765;32;34306;-83
2022/07/18 05:42:10;;;;;;;;;;;;;;;27.39;23.74;100014.44;4376167;32;34527;-84
2022/07/18 05:44:38;;;;;;;;;;;;;;;29.21;21.21;100013.09;4349831;32;32688;-84
2022/07/18 05:47:05;;;;;;;;;;;;;;;27.85;22.47;100015.09;4381831;32;34057;-86
2022/07/18 05:49:33;;;;;;;;;;;;;;;27.92;22.92;100015.66;4390749;32;34075;-85
2022/07/18 05:52:00;;;;;;;;;;;;;;;29.39;21.96;100008.62;4376925;32;34156;-83
2022/07/18 05:54:27;;;;;;;;;;;;;;;28.64;21.68;100004.31;4364880;32;33259;-83
2022/07/18 05:56:55;;;;;;;;;;;;;;;28.13;22.25;100010.22;4385427;32;35596;-83
2022/07/18 05:59:22;;;;;;;;;;;;;;;29.58;21.16;99998.75;4361773;32;33476;-84
2022/07/18 06:01:49;;;;;;;;;;;;;;;28.42;22.00;100000.03;4375522;32;34968;-83
2022/07/18 06:04:17;;;;;;;;;;;;;;;29.04;21.27;100003.28;4375884;32;34325;-83
2022/07/18 06:06:44;;;;;;;;;;;;;;;29.53;20.95;100000.75;4377765;32;35014;-83
2022/07/18 06:09:12;;;;;;;;;;;;;;;29.74;20.57;99997.00;4379303;32;34621;-83
2022/07/18 06:11:40;;;;;;;;;;;;;;;30.03;20.58;100000.75;4377392;32;34604;-84
2022/07/18 06:14:07;;;;;;;;;;;;;;;29.09;20.95;100001.22;4390812;32;32970;-82
2022/07/18 06:16:34;;;;;;;;;;;;;;;28.78;21.37;99997.38;4362551;32;33595;-81
2022/07/18 06:19:02;;;;;;;;;;;;;;;29.19;20.88;99999.84;4362215;32;34238;-82
2022/07/18 06:21:29;;;;;;;;;;;;;;;28.88;21.37;100008.47;4362117;32;34195;-83
2022/07/18 06:23:57;;;;;;;;;;;;;;;28.55;22.04;100003.84;4361914;32;33043;-83
2022/07/18 06:26:24;;;;;;;;;;;;;;;28.62;21.89;100007.09;4366155;32;34978;-84
2022/07/18 06:28:51;;;;;;;;;;;;;;;28.50;22.69;100007.69;4375288;32;34217;-84
2022/07/18 06:31:18;;;;;;;;;;;;;;;28.48;22.44;100009.53;4390344;32;35040;-85
2022/07/18 06:33:46;;;;;;;;;;;;;;;28.62;21.61;100007.94;4375865;32;33624;-82
2022/07/18 06:36:14;;;;;;;;;;;;;;;27.21;23.53;99999.22;4361750;32;34111;-83
2022/07/18 06:38:41;;;;;;;;;;;;;;;28.94;21.72;99999.28;4385111;32;33418;-83
2022/07/18 06:41:08;;;;;;;;;;;;;;;29.73;21.06;100000.59;4389757;32;34350;-86
2022/07/18 06:43:39;;;;;;;;;;;;;;;29.96;21.08;100004.72;4361729;32;34156;-83
2022/07/18 06:46:06;;;;;;;;;;;;;;;30.04;20.55;100004.28;4375188;32;33972;-84
2022/07/18 06:48:34;;;;;;;;;;;;;;;29.12;21.28;99995.75;4384085;32;35383;-83
2022/07/18 06:51:04;;;;;;;;;;;;;;;29.03;21.30;99997.06;4390383;32;33914;-83
2022/07/18 06:53:32;;;;;;;;;;;;;;;28.81;22.23;99993.72;4382429;32;33388;-85
2022/07/18 06:55:59;;;;;;;;;;;;;;;29.15;21.69;100002.75;4363232;32;33304;-83
2022/07/18 06:58:26;;;;;;;;;;;;;;;29.85;21.40;99993.72;4366979;32;34910;-87
2022/07/18 07:00:54;;;;;;;;;;;;;;;30.19;20.76;99990.16;4387365;32;33884;-81
2022/07/18 07:03:21;;;;;;;;;;;;;;;30.49;20.68;99992.91;4376617;32;33402;-82
2022/07/18 07:05:50;;;;;;;;;;;;;;;29.73;21.21;99994.41;4387133;32;34454;-83
2022/07/18 07:08:17;;;;;;;;;;;;;;;30.40;20.90;99998.78;4361369;32;34326;-82
2022/07/18 07:10:45;;;;;;;;;;;;;;;30.25;20.89;99994.28;4385071;32;33995;-82
2022/07/18 07:13:12;;;;;;;;;;;;;;;29.85;21.20;100000.91;4389894;32;34142;-83
2022/07/18 07:15:44;;;;;;;;;;;;;;;29.75;21.22;100004.06;4387331;32;34726;-82
2022/07/18 07:18:11;;;;;;;;;;;;;;;30.57;20.60;99999.63;4374991;32;33678;-84
2022/07/18 07:20:39;;;;;;;;;;;;;;;29.83;21.26;99992.97;4374875;32;34972;-83
2022/07/18 07:23:09;;;;;;;;;;;;;;;29.89;21.24;99998.00;4376769;32;33766;-91
2022/07/18 07:25:37;;;;;;;;;;;;;;;29.98;21.01;99992.13;4363260;32;35198;-81
2022/07/18 07:28:04;;;;;;;;;;;;;;;30.70;20.49;99984.63;4375814;32;34425;-86
2022/07/18 07:30:32;;;;;;;;;;;;;;;30.78;20.52;99985.91;4376978;32;33589;-83
2022/07/18 07:33:00;;;;;;;;;;;;;;;30.82;20.51;99986.59;4363303;32;33953;-83
2022/07/18 07:35:27;;;;;;;;;;;;;;;31.32;19.97;99990.81;4377187;32;35178;-83
2022/07/18 07:37:56;;;;;;;;;;;;;;;30.42;20.85;99980.84;4377816;32;34313;-82
2022/07/18 07:40:24;;;;;;;;;;;;;;;30.10;20.84;99981.72;4350932;32;34476;-83
2022/07/18 07:42:51;;;;;;;;;;;;;;;29.11;22.02;99988.69;4363219;32;34533;-82
2022/07/18 07:45:19;;;;;;;;;;;;;;;30.00;21.28;99982.25;4377133;32;33879;-82
2022/07/18 07:47:46;;;;;;;;;;;;;;;30.65;21.52;99989.34;4379165;32;34927;-82
2022/07/18 07:50:14;;;;;;;;;;;;;;;29.90;20.58;99982.81;4382492;32;35071;-82
2022/07/18 07:52:41;;;;;;;;;;;;;;;29.48;21.28;99981.44;4376697;32;33428;-83
2022/07/18 07:55:08;;;;;;;;;;;;;;;29.47;21.61;99987.72;4377369;32;34341;-82
2022/07/18 07:57:36;;;;;;;;;;;;;;;29.96;20.94;99985.13;4390233;32;35314;-81
2022/07/18 08:00:04;;;;;;;;;;;;;;;29.82;20.73;99980.56;4391881;32;33865;-82
2022/07/18 08:02:38;;;;;;;;;;;;;;;29.81;20.65;99978.81;4382465;32;33561;-82
2022/07/18 08:05:06;;;;;;;;;;;;;;;29.07;21.41;99995.13;4362785;32;34984;-85
2022/07/18 08:07:33;;;;;;;;;;;;;;;29.64;20.62;99984.22;4376258;32;34929;-84
2022/07/18 08:10:01;;;;;;;;;;;;;;;27.78;22.25;99997.66;4376960;32;34395;-82
2022/07/18 08:12:28;;;;;;;;;;;;;;;28.99;21.45;99983.97;4369767;32;33547;-82
2022/07/18 08:14:55;;;;;;;;;;;;;;;30.23;21.35;99989.03;4390275;32;34344;-83
2022/07/18 08:17:23;;;;;;;;;;;;;;;31.11;19.86;99984.06;4380634;32;34275;-83
2022/07/18 08:19:50;;;;;;;;;;;;;;;30.05;19.21;99992.69;4388223;32;34340;-83
2022/07/18 08:22:17;;;;;;;;;;;;;;;30.34;20.21;99983.06;4382619;32;33488;-83
2022/07/18 08:24:45;;;;;;;;;;;;;;;30.60;19.12;99978.91;4376377;32;34269;-83
2022/07/18 08:27:13;;;;;;;;;;;;;;;30.45;20.36;99979.78;4379056;32;34941;-82
2022/07/18 08:29:40;;;;;;;;;;;;;;;30.23;19.69;99985.47;4377753;32;34514;-82
2022/07/18 08:32:28;;;;;;;;;;;;;;;31.10;18.88;99979.63;4365017;32;34371;-83
2022/07/18 08:34:55;;;;;;;;;;;;;;;31.41;19.76;99981.38;4376557;32;34271;-82
2022/07/18 08:37:23;;;;;;;;;;;;;;;30.61;19.50;99982.44;4376150;32;34395;-84
2022/07/18 08:39:50;;;;;;;;;;;;;;;29.80;20.28;99987.78;4376310;32;35049;-84
2022/07/18 08:42:18;;;;;;;;;;;;;;;29.22;19.91;99985.47;4376629;32;33557;-80
2022/07/18 08:44:45;;;;;;;;;;;;;;;30.42;18.62;99972.81;4362813;32;33861;-83
2022/07/18 08:47:15;;;;;;;;;;;;;;;30.92;18.63;99977.09;4376180;32;34328;-83
2022/07/18 08:49:43;;;;;;;;;;;;;;;31.16;19.15;99987.31;4362776;32;35200;-83
2022/07/18 08:52:11;;;;;;;;;;;;;;;31.11;18.02;99978.69;4363057;32;32869;-82
2022/07/18 08:54:56;;;;;;;;;;;;;;;30.89;19.36;99993.34;4376366;32;33437;-82
2022/07/18 08:57:28;;;;;;;;;;;;;;;30.40;18.90;99987.22;4363076;32;34238;-83
2022/07/18 08:59:56;;;;;;;;;;;;;;;30.95;19.09;99976.03;4362794;32;34108;-83
2022/07/18 09:02:26;;;;;;;;;;;;;;;31.44;18.32;99991.91;4376593;32;33139;-82
2022/07/18 09:04:53;;;;;;;;;;;;;;;31.88;17.32;99991.88;4362694;32;33881;-89
2022/07/18 09:07:41;;;;;;;;;;;;;;;30.58;20.56;99985.31;4376047;32;34254;-84
2022/07/18 09:10:08;;;;;;;;;;;;;;;30.83;19.46;99995.50;4376192;32;33959;-83
2022/07/18 09:12:35;;;;;;;;;;;;;;;29.12;20.10;99995.75;4376128;32;34022;-83
2022/07/18 09:15:06;;;;;;;;;;;;;;;30.35;19.92;99984.81;4375374;32;34707;-84
2022/07/18 09:17:34;;;;;;;;;;;;;;;30.51;18.95;99985.66;4374397;32;34376;-81
2022/07/18 09:20:08;;;;;;;;;;;;;;;29.27;19.12;99991.44;4376091;32;35212;-80
2022/07/18 09:22:40;;;;;;;;;;;;;;;31.21;17.34;99985.22;4380787;32;34297;-83
2022/07/18 09:25:11;;;;;;;;;;;;;;;31.70;17.23;99977.75;4367330;32;35142;-83
2022/07/18 09:27:39;;;;;;;;;;;;;;;31.11;17.81;99984.06;4376010;32;35227;-81
2022/07/18 09:30:06;;;;;;;;;;;;;;;32.02;17.45;99982.12;4376923;32;34099;-83
2022/07/18 09:32:39;;;;;;;;;;;;;;;31.55;17.79;99983.22;4389435;32;34178;-85
2022/07/18 09:35:07;;;;;;;;;;;;;;;31.89;17.21;99988.25;4387991;32;34529;-84
2022/07/18 09:37:35;;;;;;;;;;;;;;;31.94;16.53;99986.16;4362176;32;33951;-91
2022/07/18 09:40:15;;;;;;;;;;;;;;;31.17;17.94;99981.00;4362666;32;34143;-82
2022/07/18 09:42:50;;;;;;;;;;;;;;;32.38;16.36;99978.91;4388521;32;34175;-93
2022/07/18 09:45:30;;;;;;;;;;;;;;;32.98;15.17;99966.97;4390650;32;34206;-82
2022/07/18 09:47:59;;;;;;;;;;;;;;;32.92;15.23;99968.19;4378527;32;34432;-83
2022/07/18 09:50:27;;;;;;;;;;;;;;;33.11;15.41;99974.09;4377169;32;34725;-83
2022/07/18 09:52:56;;;;;;;;;;;;;;;32.82;16.68;99970.66;4391402;32;33297;-82
2022/07/18 09:55:44;;;;;;;;;;;;;;;32.66;16.58;99973.50;4391020;32;34236;-85
2022/07/18 09:58:12;;;;;;;;;;;;;;;32.16;15.87;99974.03;4377261;32;35019;-82
2022/07/18 10:00:39;;;;;;;;;;;;;;;30.69;17.40;99973.03;4369605;32;34639;-84
2022/07/18 10:03:08;;;;;;;;;;;;;;;31.15;17.86;99974.88;4376018;32;33386;-88
2022/07/18 10:05:36;;;;;;;;;;;;;;;32.27;16.58;99959.94;4375711;32;34225;-85
2022/07/18 10:08:05;;;;;;;;;;;;;;;32.30;16.64;99965.13;4375644;32;35057;-84
2022/07/18 10:10:33;;;;;;;;;;;;;;;31.59;17.50;99965.97;4362414;32;34472;-84
2022/07/18 10:13:02;;;;;;;;;;;;;;;32.44;17.23;99957.06;4365440;32;33825;-83
2022/07/18 10:15:30;;;;;;;;;;;;;;;32.22;17.24;99954.87;4387280;32;34391;-86
2022/07/18 10:17:58;;;;;;;;;;;;;;;32.49;16.56;99949.56;4375684;32;35236;-82
2022/07/18 10:20:26;;;;;;;;;;;;;;;32.30;16.29;99949.00;4381043;32;32771;-84
2022/07/18 10:22:54;;;;;;;;;;;;;;;32.41;16.27;99944.69;4388848;32;33494;-85
2022/07/18 10:25:25;;;;;;;;;;;;;;;32.94;15.96;99945.69;4375467;32;34228;-86
2022/07/18 10:27:54;;;;;;;;;;;;;;;32.12;16.71;99946.53;4362130;32;34092;-85
2022/07/18 10:30:34;;;;;;;;;;;;;;;30.71;16.87;99943.50;4361673;32;33771;-85
2022/07/18 10:33:02;;;;;;;;;;;;;;;30.82;16.58;99940.25;4362021;32;33484;-85
2022/07/18 10:35:48;;;;;;;;;;;;;;;31.97;15.83;99948.41;4361524;32;34346;-84
2022/07/18 10:38:19;;;;;;;;;;;;;;;32.77;15.02;99935.19;4369126;32;34135;-91
2022/07/18 10:41:03;;;;;;;;;;;;;;;32.81;16.09;99931.34;4387040;32;34249;-84
2022/07/18 10:43:31;;;;;;;;;;;;;;;31.71;16.79;99931.25;4386721;32;34272;-84
2022/07/18 10:45:59;;;;;;;;;;;;;;;32.46;16.40;99920.25;4374667;32;33762;-84
2022/07/18 10:48:32;;;;;;;;;;;;;;;32.01;17.11;99922.22;4389011;32;34348;-83
2022/07/18 10:51:00;;;;;;;;;;;;;;;32.41;16.78;99925.91;4366954;32;34130;-84
2022/07/18 10:53:46;;;;;;;;;;;;;;;32.26;16.06;99929.56;4352331;32;33891;-83
2022/07/18 10:56:13;;;;;;;;;;;;;;;32.15;15.59;99922.22;4364017;32;35080;-83
2022/07/18 10:58:41;;;;;;;;;;;;;;;32.42;16.68;99922.25;4366921;32;34454;-84
2022/07/18 11:01:10;;;;;;;;;;;;;;;33.20;15.39;99920.69;4347234;32;34166;-88
2022/07/18 11:03:37;;;;;;;;;;;;;;;32.91;16.01;99912.75;4362688;32;34408;-84
2022/07/18 11:06:05;;;;;;;;;;;;;;;33.28;15.72;99912.94;4376246;32;34918;-83
2022/07/18 11:08:33;;;;;;;;;;;;;;;33.79;14.81;99899.50;4364755;32;34298;-84
2022/07/18 11:11:04;;;;;;;;;;;;;;;33.66;14.72;99899.53;4355169;32;34393;-83
2022/07/18 11:13:35;;;;;;;;;;;;;;;33.71;13.45;99891.97;4363789;32;32789;-95
2022/07/18 11:16:06;;;;;;;;;;;;;;;32.99;14.38;99888.94;4391758;32;34992;-82
2022/07/18 11:18:40;;;;;;;;;;;;;;;33.36;14.67;99886.41;4391058;32;35267;-81
2022/07/18 11:21:26;;;;;;;;;;;;;;;32.91;15.58;99889.44;4385531;32;34160;-83
2022/07/18 11:23:59;;;;;;;;;;;;;;;33.12;15.14;99880.91;4375305;32;34036;-82
2022/07/18 11:26:26;;;;;;;;;;;;;;;33.09;13.98;99876.59;4381576;32;32563;-81
2022/07/18 11:29:08;;;;;;;;;;;;;;;32.77;14.82;99886.84;4377408;32;34914;-82
2022/07/18 11:32:03;;;;;;;;;;;;;;;33.10;13.52;99872.09;4363262;32;34905;-81
2022/07/18 11:34:30;;;;;;;;;;;;;;;33.41;14.05;99869.00;4362997;32;32830;-81
2022/07/18 11:37:14;;;;;;;;;;;;;;;33.77;13.65;99859.28;4364273;32;34273;-88
2022/07/18 11:39:41;;;;;;;;;;;;;;;32.89;15.06;99861.84;4377410;32;34515;-81
2022/07/18 11:42:11;;;;;;;;;;;;;;;32.62;14.57;99863.72;4377837;32;34809;-82
2022/07/18 11:44:40;;;;;;;;;;;;;;;32.56;14.86;99853.41;4362002;32;33615;-82
2022/07/18 11:47:09;;;;;;;;;;;;;;;32.51;14.59;99856.41;4375806;32;33845;-84
2022/07/18 11:49:36;;;;;;;;;;;;;;;31.93;14.43;99858.34;4375537;32;34363;-83
2022/07/18 11:52:05;;;;;;;;;;;;;;;32.36;15.79;99857.38;4375709;32;34647;-80
2022/07/18 11:54:32;;;;;;;;;;;;;;;33.59;14.10;99848.00;4375780;32;33501;-85
2022/07/18 11:57:00;;;;;;;;;;;;;;;33.66;14.49;99851.13;4362647;32;34008;-83
2022/07/18 11:59:35;;;;;;;;;;;;;;;31.86;14.69;99849.03;4334054;32;914884;-84
2022/07/18 12:02:02;;;;;;;;;;;;;;;32.58;15.23;99843.41;4362738;32;34935;-86
2022/07/18 12:04:30;;;;;;;;;;;;;;;32.64;14.25;99846.53;4362724;32;33537;-83
2022/07/18 12:07:12;;;;;;;;;;;;;;;31.92;14.85;99845.06;4362778;32;33914;-84
2022/07/18 12:09:40;;;;;;;;;;;;;;;32.30;14.32;99847.06;4376602;32;34360;-91
2022/07/18 12:12:09;;;;;;;;;;;;;;;33.20;14.52;99840.94;4375723;32;34249;-86
2022/07/18 12:14:58;;;;;;;;;;;;;;;33.55;13.67;99835.75;4376727;32;33417;-90
2022/07/18 12:17:27;;;;;;;;;;;;;;;32.47;14.54;99828.03;4362970;32;34304;-87
2022/07/18 12:20:14;;;;;;;;;;;;;;;33.83;13.28;99828.38;4376468;32;35048;-83
2022/07/18 12:23:00;;;;;;;;;;;;;;;34.35;13.61;99825.37;4367336;32;33667;-82
2022/07/18 12:25:48;;;;;;;;;;;;;;;33.37;12.79;99834.34;4375954;32;34214;-85
2022/07/18 12:28:24;;;;;;;;;;;;;;;34.05;12.55;99819.59;4375869;32;34244;-83
2022/07/18 12:30:52;;;;;;;;;;;;;;;33.54;13.76;99817.06;4374865;32;34183;-86
2022/07/18 12:33:26;;;;;;;;;;;;;;;34.27;13.80;99817.03;4362584;32;34335;-85
2022/07/18 12:35:55;;;;;;;;;;;;;;;34.33;12.16;99819.28;4381348;32;33246;-83
2022/07/18 12:38:22;;;;;;;;;;;;;;;33.38;13.00;99817.28;4351854;32;34144;-83
2022/07/18 12:41:01;;;;;;;;;;;;;;;33.61;14.17;99826.41;4373408;32;34230;-82
2022/07/18 12:43:37;;;;;;;;;;;;;;;32.65;14.00;99810.66;4375510;32;34794;-81
2022/07/18 12:46:08;;;;;;;;;;;;;;;33.70;13.79;99812.28;4367586;32;33856;-86
2022/07/18 12:48:36;;;;;;;;;;;;;;;33.73;13.58;99812.06;4376229;32;34150;-83
2022/07/18 12:51:04;;;;;;;;;;;;;;;32.01;13.94;99808.72;4374953;32;34502;-82
2022/07/18 12:53:34;;;;;;;;;;;;;;;33.39;14.16;99809.09;4371508;32;33272;-82
2022/07/18 12:56:03;;;;;;;;;;;;;;;34.17;13.39;99802.53;4363892;32;33426;-84
2022/07/18 12:58:30;;;;;;;;;;;;;;;33.73;13.64;99804.00;4357220;32;34808;-84